Time;durP1;ratioP1;P1;durP2;ratioP2;P2;SDS_P1;SDS_P2;PMS_P1;PMS_P2;Temp;Humidity;BMP_temperature;BMP_pressure;BME280_temperature;BME280_humidity;BME280_pressure;Samples;Min_cycle;Max_cycle;Signal;HPM_P1;HPM_P2
2022/03/08 00:01:54;;;;;;;34.67;18.30;;;-2.00;47.60;;;;;;5061120;28;20460;-54
2022/03/08 00:04:20;;;;;;;28.93;16.80;;;-2.00;47.70;;;;;;5058788;28;20582;-54
2022/03/08 00:06:46;;;;;;;38.17;17.90;;;-2.00;47.80;;;;;;5057908;28;20170;-54
2022/03/08 00:09:12;;;;;;;43.33;17.87;;;-2.00;47.80;;;;;;5057751;28;20172;-54
2022/03/08 00:11:37;;;;;;;34.70;19.10;;;-2.00;47.80;;;;;;5058757;28;20463;-54
2022/03/08 00:14:03;;;;;;;33.40;17.47;;;-2.00;48.30;;;;;;5059786;28;20193;-56
2022/03/08 00:16:29;;;;;;;34.80;18.57;;;-2.00;47.90;;;;;;5059588;28;20685;-54
2022/03/08 00:18:54;;;;;;;33.23;19.07;;;-2.00;47.80;;;;;;5060576;28;20177;-56
2022/03/08 00:21:20;;;;;;;33.03;17.23;;;-2.00;47.80;;;;;;5063794;28;20373;-54
2022/03/08 00:23:47;;;;;;;29.83;17.70;;;-2.00;47.80;;;;;;5061421;28;20171;-56
2022/03/08 00:26:13;;;;;;;36.00;18.23;;;-2.00;47.80;;;;;;5062885;28;20433;-55
2022/03/08 00:28:39;;;;;;;33.03;17.43;;;-2.00;47.70;;;;;;5064745;28;20436;-56
2022/03/08 00:31:05;;;;;;;37.00;18.17;;;-2.00;47.90;;;;;;5065207;28;20460;-58
2022/03/08 00:33:30;;;;;;;30.20;18.43;;;-2.00;47.80;;;;;;5074730;28;20433;-54
2022/03/08 00:35:56;;;;;;;30.63;17.03;;;-2.00;47.80;;;;;;5073278;28;20218;-55
2022/03/08 00:38:22;;;;;;;29.93;17.87;;;-2.10;47.60;;;;;;5071637;28;20536;-55
2022/03/08 00:40:48;;;;;;;36.30;18.07;;;-2.10;47.60;;;;;;5071561;28;20427;-56
2022/03/08 00:43:14;;;;;;;41.00;18.60;;;-2.10;47.60;;;;;;5077688;28;20548;-55
2022/03/08 00:45:40;;;;;;;34.63;17.30;;;-2.10;47.50;;;;;;5080876;28;20199;-56
2022/03/08 00:48:06;;;;;;;36.83;18.30;;;-2.10;47.60;;;;;;5066417;28;20441;-54
2022/03/08 00:50:33;;;;;;;32.13;18.50;;;-2.10;47.50;;;;;;5060336;28;20406;-56
2022/03/08 00:53:00;;;;;;;35.80;17.47;;;-2.10;47.30;;;;;;5066162;28;20448;-58
2022/03/08 00:55:29;;;;;;;31.53;17.13;;;-2.10;47.90;;;;;;5064869;28;20438;-54
2022/03/08 00:57:55;;;;;;;31.27;17.67;;;-2.10;47.40;;;;;;5070396;28;20814;-54
2022/03/08 01:00:23;;;;;;;37.20;19.27;;;-2.10;47.50;;;;;;5065272;28;20478;-54
2022/03/08 01:02:50;;;;;;;30.90;16.70;;;-2.10;47.50;;;;;;5062082;28;20454;-55
2022/03/08 01:05:16;;;;;;;32.20;17.53;;;-2.10;47.50;;;;;;5066509;28;20426;-55
2022/03/08 01:07:43;;;;;;;34.03;18.50;;;-2.10;47.60;;;;;;5069596;28;20457;-55
2022/03/08 01:10:11;;;;;;;32.37;16.63;;;-2.10;47.60;;;;;;5065569;28;20425;-54
2022/03/08 01:12:37;;;;;;;36.90;19.30;;;-2.10;47.60;;;;;;5066885;28;20434;-55
2022/03/08 01:15:04;;;;;;;36.43;18.90;;;-2.10;47.60;;;;;;5067226;28;20437;-56
2022/03/08 01:17:30;;;;;;;35.90;17.47;;;-2.10;47.60;;;;;;5067174;28;20511;-54
2022/03/08 01:19:55;;;;;;;32.90;17.70;;;-2.10;47.50;;;;;;5068631;28;20426;-56
2022/03/08 01:22:22;;;;;;;32.73;17.87;;;-2.10;47.40;;;;;;5071669;28;20206;-54
2022/03/08 01:24:47;;;;;;;34.40;17.30;;;-2.20;47.40;;;;;;5063484;28;20191;-54
2022/03/08 01:27:13;;;;;;;35.80;18.00;;;-2.20;47.50;;;;;;5068407;28;20624;-58
2022/03/08 01:29:39;;;;;;;43.63;20.33;;;-2.30;47.60;;;;;;5062892;28;20182;-56
2022/03/08 01:32:05;;;;;;;34.10;16.97;;;-2.30;47.60;;;;;;5067641;28;20679;-54
2022/03/08 01:34:31;;;;;;;32.40;17.27;;;-2.30;47.60;;;;;;5065222;28;20172;-54
2022/03/08 01:36:56;;;;;;;31.80;18.27;;;-2.40;47.70;;;;;;5066415;28;20447;-57
2022/03/08 01:39:23;;;;;;;37.20;17.57;;;-2.30;47.90;;;;;;5067991;28;20176;-56
2022/03/08 01:41:49;;;;;;;32.93;18.17;;;-2.40;47.80;;;;;;5081680;28;20192;-55
2022/03/08 01:44:18;;;;;;;33.63;16.23;;;-2.40;48.00;;;;;;5070306;28;20418;-55
2022/03/08 01:46:44;;;;;;;34.73;17.67;;;-2.40;48.10;;;;;;5070518;28;20185;-56
2022/03/08 01:49:09;;;;;;;28.23;16.73;;;-2.40;48.10;;;;;;5064037;28;20507;-56
2022/03/08 01:51:37;;;;;;;33.23;18.50;;;-2.40;48.20;;;;;;5069338;28;20612;-55
2022/03/08 01:54:04;;;;;;;34.47;17.57;;;-2.40;48.10;;;;;;5060997;28;20176;-54
2022/03/08 01:56:30;;;;;;;33.63;18.13;;;-2.40;48.20;;;;;;5063584;28;20435;-53
2022/03/08 01:58:56;;;;;;;34.23;17.70;;;-2.40;48.20;;;;;;5061570;28;20459;-56
2022/03/08 02:01:22;;;;;;;36.37;17.67;;;-2.50;48.10;;;;;;5058094;28;20851;-54
2022/03/08 02:03:48;;;;;;;37.83;18.17;;;-2.50;48.30;;;;;;5070685;28;20438;-55
2022/03/08 02:06:14;;;;;;;37.10;18.40;;;-2.50;48.30;;;;;;5068921;28;20180;-55
2022/03/08 02:08:41;;;;;;;33.80;18.43;;;-2.50;48.40;;;;;;5070664;28;21021;-54
2022/03/08 02:11:07;;;;;;;32.57;17.03;;;-2.50;48.60;;;;;;5069297;28;20218;-57
2022/03/08 02:13:32;;;;;;;34.07;18.67;;;-2.60;48.50;;;;;;5064959;28;20953;-54
2022/03/08 02:15:58;;;;;;;36.13;19.47;;;-2.60;48.60;;;;;;5064400;28;20175;-55
2022/03/08 02:18:24;;;;;;;34.00;17.27;;;-2.60;48.60;;;;;;5067461;28;20522;-53
2022/03/08 02:20:49;;;;;;;34.00;18.17;;;-2.60;48.60;;;;;;5056324;28;20562;-56
2022/03/08 02:23:15;;;;;;;32.57;16.97;;;-2.60;48.70;;;;;;5065181;28;20542;-55
2022/03/08 02:25:41;;;;;;;32.83;17.10;;;-2.60;48.70;;;;;;5060709;28;20180;-55
2022/03/08 02:28:07;;;;;;;31.40;16.70;;;-2.70;48.50;;;;;;5059496;28;20195;-56
2022/03/08 02:30:33;;;;;;;37.80;19.00;;;-2.80;48.50;;;;;;5059544;28;20666;-54
2022/03/08 02:32:58;;;;;;;32.30;17.43;;;-2.80;48.70;;;;;;5065682;28;20184;-57
2022/03/08 02:35:27;;;;;;;38.60;18.27;;;-2.80;48.80;;;;;;5061880;28;20183;-55
2022/03/08 02:37:56;;;;;;;37.73;17.73;;;-2.90;48.80;;;;;;5060911;28;20198;-56
2022/03/08 02:40:24;;;;;;;34.33;17.17;;;-2.90;48.90;;;;;;5063178;28;20916;-55
2022/03/08 02:42:51;;;;;;;36.73;18.50;;;-2.80;49.10;;;;;;5059493;28;20492;-54
2022/03/08 02:45:17;;;;;;;41.73;18.40;;;-2.80;49.10;;;;;;5059563;28;20455;-57
2022/03/08 02:47:44;;;;;;;29.07;17.43;;;-2.80;49.10;;;;;;5063187;28;20894;-57
2022/03/08 02:50:13;;;;;;;36.27;17.30;;;-2.80;49.10;;;;;;5064827;28;20956;-54
2022/03/08 02:52:40;;;;;;;36.97;18.70;;;-2.80;49.10;;;;;;5066061;28;20419;-58
2022/03/08 02:55:08;;;;;;;34.50;17.80;;;-2.80;49.10;;;;;;5068753;28;20482;-55
2022/03/08 02:57:34;;;;;;;35.30;17.90;;;-2.80;49.10;;;;;;5065067;28;20457;-56
2022/03/08 02:59:59;;;;;;;35.13;17.80;;;-2.80;49.10;;;;;;5061240;28;20419;-54
2022/03/08 03:02:25;;;;;;;34.03;17.70;;;-2.80;49.10;;;;;;5079197;28;20192;-56
2022/03/08 03:04:51;;;;;;;31.97;16.63;;;-2.80;49.10;;;;;;5056335;28;20179;-56
2022/03/08 03:07:17;;;;;;;40.80;17.93;;;-2.80;49.10;;;;;;5059632;28;20179;-54
2022/03/08 03:09:43;;;;;;;32.77;18.23;;;-2.80;49.10;;;;;;5062522;28;20180;-54
2022/03/08 03:12:09;;;;;;;29.40;17.27;;;-2.80;49.10;;;;;;5063738;28;20609;-53
2022/03/08 03:14:35;;;;;;;32.30;17.10;;;-2.80;49.10;;;;;;5061082;28;20176;-54
2022/03/08 03:17:00;;;;;;;33.23;17.57;;;-2.80;49.00;;;;;;5065091;28;20198;-54
2022/03/08 03:19:26;;;;;;;29.37;15.50;;;-2.80;49.00;;;;;;5066760;28;20429;-54
2022/03/08 03:21:52;;;;;;;31.93;16.47;;;-2.80;49.00;;;;;;5063195;28;20702;-54
2022/03/08 03:24:17;;;;;;;33.23;16.70;;;-2.80;49.00;;;;;;5066241;28;20177;-54
2022/03/08 03:26:43;;;;;;;35.73;19.07;;;-2.80;48.90;;;;;;5060129;28;20188;-61
2022/03/08 03:29:09;;;;;;;32.80;16.97;;;-2.80;48.80;;;;;;5064101;28;20184;-55
2022/03/08 03:31:35;;;;;;;32.80;17.10;;;-2.80;48.80;;;;;;5058109;28;20233;-52
2022/03/08 03:34:01;;;;;;;27.30;15.90;;;-2.80;48.80;;;;;;5059876;28;20528;-56
2022/03/08 03:36:26;;;;;;;30.97;17.60;;;-2.80;48.80;;;;;;5062649;28;20199;-55
2022/03/08 03:38:53;;;;;;;34.53;18.37;;;-2.80;48.80;;;;;;5067875;28;20422;-56
2022/03/08 03:41:19;;;;;;;36.63;16.73;;;-2.80;48.80;;;;;;5063120;28;20198;-55
2022/03/08 03:43:44;;;;;;;35.07;18.10;;;-2.80;48.80;;;;;;5065734;28;20521;-58
2022/03/08 03:46:10;;;;;;;30.77;17.00;;;-2.80;48.80;;;;;;5062697;28;20464;-55
2022/03/08 03:48:36;;;;;;;32.73;16.17;;;-2.90;48.70;;;;;;5065360;28;20739;-54
2022/03/08 03:51:01;;;;;;;32.20;16.37;;;-2.90;48.80;;;;;;5060825;28;20723;-54
2022/03/08 03:53:27;;;;;;;26.90;16.07;;;-2.90;48.80;;;;;;5068963;28;20171;-55
2022/03/08 03:55:53;;;;;;;32.60;18.00;;;-2.90;48.90;;;;;;5065084;28;20221;-54
2022/03/08 03:58:18;;;;;;;31.07;16.07;;;-3.00;48.80;;;;;;5062698;28;20682;-55
2022/03/08 04:00:44;;;;;;;29.63;17.07;;;-3.00;49.50;;;;;;5061393;28;20191;-58
2022/03/08 04:03:10;;;;;;;32.33;15.83;;;-3.00;49.00;;;;;;5066213;28;20193;-55
2022/03/08 04:05:35;;;;;;;30.53;17.00;;;-3.00;48.90;;;;;;5062230;28;20188;-55
2022/03/08 04:08:01;;;;;;;28.00;15.10;;;-2.90;49.00;;;;;;5066865;28;20264;-53
2022/03/08 04:10:27;;;;;;;35.37;17.57;;;-2.90;49.30;;;;;;5060763;28;20638;-55
2022/03/08 04:12:52;;;;;;;30.53;15.80;;;-2.90;48.70;;;;;;5068071;28;20191;-54
2022/03/08 04:15:18;;;;;;;28.20;16.23;;;-2.90;48.60;;;;;;5066634;28;22056;-57
2022/03/08 04:17:44;;;;;;;27.00;16.20;;;-2.90;48.70;;;;;;5070549;28;20210;-56
2022/03/08 04:20:11;;;;;;;29.73;14.97;;;-2.90;48.80;;;;;;5070483;28;21215;-55
2022/03/08 04:22:37;;;;;;;31.33;15.43;;;-2.90;48.60;;;;;;5109723;22;20218;-60
2022/03/08 04:25:03;;;;;;;30.90;16.53;;;-2.90;49.20;;;;;;5095877;28;20549;-60
2022/03/08 04:27:29;;;;;;;31.37;15.43;;;-2.90;48.80;;;;;;5102800;28;20467;-61
2022/03/08 04:29:55;;;;;;;33.97;17.17;;;-2.90;48.70;;;;;;5084907;28;20399;-59
2022/03/08 04:32:20;;;;;;;28.67;15.47;;;-2.90;48.70;;;;;;5089987;28;20200;-61
2022/03/08 04:34:46;;;;;;;43.23;16.33;;;-3.00;48.60;;;;;;5083907;28;20244;-59
2022/03/08 04:37:12;;;;;;;34.60;16.20;;;-3.00;48.60;;;;;;5077262;28;20318;-60
2022/03/08 04:39:38;;;;;;;33.20;15.80;;;-3.00;48.70;;;;;;5078219;28;20267;-61
2022/03/08 04:42:04;;;;;;;28.00;15.60;;;-3.00;48.70;;;;;;5077385;28;20274;-60
2022/03/08 04:44:29;;;;;;;33.97;16.00;;;-3.00;48.80;;;;;;5068545;28;20230;-60
2022/03/08 04:46:55;;;;;;;34.80;15.20;;;-3.00;48.70;;;;;;5059248;28;20419;-62
2022/03/08 04:49:21;;;;;;;29.33;16.30;;;-3.10;48.50;;;;;;5062102;28;20213;-60
2022/03/08 04:51:47;;;;;;;32.00;16.27;;;-3.10;48.70;;;;;;5058971;28;20203;-59
2022/03/08 04:54:12;;;;;;;32.20;15.50;;;-3.10;48.70;;;;;;5058282;28;20176;-60
2022/03/08 04:56:38;;;;;;;31.77;16.20;;;-3.10;48.70;;;;;;5064320;28;20664;-58
2022/03/08 04:59:04;;;;;;;32.87;15.70;;;-3.10;48.80;;;;;;5063478;28;20188;-60
2022/03/08 05:01:30;;;;;;;28.73;15.20;;;-3.10;48.70;;;;;;5060517;28;20587;-60
2022/03/08 05:03:56;;;;;;;32.83;14.77;;;-3.10;48.70;;;;;;5065092;28;21021;-56
2022/03/08 05:06:21;;;;;;;30.00;16.13;;;-3.10;48.80;;;;;;5061202;28;20534;-62
2022/03/08 05:08:47;;;;;;;34.87;16.57;;;-3.10;48.80;;;;;;5062901;28;20458;-62
2022/03/08 05:11:14;;;;;;;30.73;15.47;;;-3.20;48.70;;;;;;5062276;28;20206;-60
2022/03/08 05:13:40;;;;;;;29.70;15.10;;;-3.20;48.60;;;;;;5067546;28;20248;-60
2022/03/08 05:16:05;;;;;;;34.40;16.73;;;-3.20;48.60;;;;;;5050791;28;20427;-64
2022/03/08 05:18:32;;;;;;;36.93;15.97;;;-3.20;48.80;;;;;;5079744;28;20430;-62
2022/03/08 05:20:57;;;;;;;27.50;15.00;;;-3.30;48.80;;;;;;5080196;28;20180;-63
2022/03/08 05:23:23;;;;;;;33.10;15.97;;;-3.30;49.00;;;;;;5076844;28;20447;-66
2022/03/08 05:25:49;;;;;;;34.80;16.57;;;-3.30;49.00;;;;;;5069407;28;20198;-63
2022/03/08 05:28:14;;;;;;;34.70;16.70;;;-3.30;49.10;;;;;;5077204;28;20186;-66
2022/03/08 05:30:40;;;;;;;31.73;16.33;;;-3.30;49.10;;;;;;5076387;28;20172;-63
2022/03/08 05:33:06;;;;;;;37.27;16.40;;;-3.30;49.00;;;;;;5082756;28;20245;-64
2022/03/08 05:35:32;;;;;;;30.07;15.47;;;-3.40;49.00;;;;;;5082598;28;20472;-62
2022/03/08 05:37:58;;;;;;;29.63;15.73;;;-3.40;49.00;;;;;;5066973;28;20272;-63
2022/03/08 05:40:23;;;;;;;32.13;17.07;;;-3.40;49.20;;;;;;5080418;28;20181;-62
2022/03/08 05:42:49;;;;;;;30.80;14.57;;;-3.40;49.20;;;;;;5084660;28;20690;-62
2022/03/08 05:45:15;;;;;;;28.33;15.33;;;-3.40;49.10;;;;;;5066870;28;20694;-62
2022/03/08 05:47:41;;;;;;;29.67;15.20;;;-3.40;49.00;;;;;;5068968;28;20422;-62
2022/03/08 05:50:09;;;;;;;28.90;14.87;;;-3.40;49.00;;;;;;5064603;28;20252;-63
2022/03/08 05:52:35;;;;;;;34.13;16.10;;;-3.40;49.10;;;;;;5063805;28;20978;-62
2022/03/08 05:55:00;;;;;;;36.47;15.37;;;-3.40;49.00;;;;;;5077723;28;20399;-68
2022/03/08 05:57:26;;;;;;;25.70;14.60;;;-3.40;49.00;;;;;;5071816;28;20183;-64
2022/03/08 05:59:52;;;;;;;31.70;15.10;;;-3.40;49.00;;;;;;5076415;28;20645;-61
2022/03/08 06:02:18;;;;;;;24.93;15.53;;;-3.40;49.00;;;;;;5056933;28;20224;-63
2022/03/08 06:04:45;;;;;;;28.10;15.03;;;-3.30;49.10;;;;;;5067615;28;20227;-62
2022/03/08 06:07:11;;;;;;;27.87;15.07;;;-3.30;49.00;;;;;;5068202;28;20394;-61
2022/03/08 06:09:37;;;;;;;24.80;13.70;;;-3.20;49.00;;;;;;5084513;28;20425;-62
2022/03/08 06:12:03;;;;;;;32.27;16.00;;;-3.20;48.90;;;;;;5079611;28;20489;-61
2022/03/08 06:14:29;;;;;;;25.60;12.77;;;-3.20;48.90;;;;;;5088014;28;20457;-66
2022/03/08 06:16:55;;;;;;;24.30;14.87;;;-3.10;49.00;;;;;;5074769;28;20441;-62
2022/03/08 06:19:21;;;;;;;32.33;14.10;;;-3.10;49.00;;;;;;5089620;28;20505;-60
2022/03/08 06:21:46;;;;;;;29.20;14.43;;;-3.10;49.10;;;;;;5079050;28;20749;-62
2022/03/08 06:24:13;;;;;;;33.00;15.57;;;-3.10;49.00;;;;;;5068733;28;20163;-62
2022/03/08 06:26:39;;;;;;;28.43;15.27;;;-3.10;49.00;;;;;;5089241;28;20175;-65
2022/03/08 06:29:06;;;;;;;28.47;14.47;;;-3.00;49.10;;;;;;5077905;28;20440;-62
2022/03/08 06:31:32;;;;;;;27.10;14.63;;;-3.00;49.10;;;;;;5088481;28;20420;-63
2022/03/08 06:33:57;;;;;;;28.17;13.87;;;-3.00;48.90;;;;;;5081761;28;20972;-62
2022/03/08 06:36:23;;;;;;;29.40;15.47;;;-2.90;48.90;;;;;;5067777;28;20203;-61
2022/03/08 06:38:49;;;;;;;32.90;15.57;;;-2.90;48.80;;;;;;5066052;28;20176;-64
2022/03/08 06:41:14;;;;;;;33.83;14.87;;;-2.90;48.80;;;;;;5084563;28;20182;-62
2022/03/08 06:43:40;;;;;;;29.07;15.37;;;-2.80;48.90;;;;;;5059278;28;20253;-61
2022/03/08 06:46:06;;;;;;;29.93;15.70;;;-2.80;48.80;;;;;;5068241;28;20264;-62
2022/03/08 06:48:32;;;;;;;27.73;13.80;;;-2.70;48.90;;;;;;5060031;28;20175;-62
2022/03/08 06:50:58;;;;;;;34.30;15.67;;;-2.60;48.90;;;;;;5061552;28;20510;-60
2022/03/08 06:53:23;;;;;;;31.40;16.47;;;-2.50;48.80;;;;;;5043462;28;20245;-62
2022/03/08 06:55:49;;;;;;;26.97;14.63;;;-2.40;48.70;;;;;;5042447;28;20637;-61
2022/03/08 06:58:15;;;;;;;35.00;16.70;;;-2.20;48.60;;;;;;5053405;28;20216;-61
2022/03/08 07:00:41;;;;;;;27.83;15.20;;;-2.10;48.50;;;;;;5060597;28;20192;-59
2022/03/08 07:03:06;;;;;;;32.90;15.50;;;-2.10;48.20;;;;;;5057411;28;20486;-60
2022/03/08 07:05:32;;;;;;;34.63;15.80;;;-2.00;48.20;;;;;;5043896;28;20447;-59
2022/03/08 07:07:58;;;;;;;32.13;15.67;;;-1.90;48.00;;;;;;5045330;28;20226;-58
2022/03/08 07:10:24;;;;;;;28.00;14.27;;;-1.80;48.00;;;;;;5062972;28;20606;-59
2022/03/08 07:12:50;;;;;;;29.00;14.30;;;-1.60;47.80;;;;;;5064119;28;20496;-61
2022/03/08 07:15:16;;;;;;;34.90;16.07;;;-1.60;47.60;;;;;;5067153;28;20549;-60
2022/03/08 07:17:47;;;;;;;32.03;16.37;;;-1.50;47.30;;;;;;5067084;28;20731;-60
2022/03/08 07:20:14;;;;;;;26.00;15.10;;;-1.40;47.20;;;;;;5057857;28;20709;-60
2022/03/08 07:22:40;;;;;;;33.77;16.03;;;-1.40;47.10;;;;;;5053383;28;20458;-61
2022/03/08 07:25:07;;;;;;;32.47;15.63;;;-1.30;47.00;;;;;;5044631;28;20841;-60
2022/03/08 07:27:33;;;;;;;28.90;14.90;;;-1.20;46.80;;;;;;5067303;28;20207;-61
2022/03/08 07:29:58;;;;;;;25.43;15.30;;;-1.10;46.70;;;;;;5080291;28;20464;-60
2022/03/08 07:32:24;;;;;;;27.47;14.67;;;-1.00;46.50;;;;;;5086082;28;20199;-62
2022/03/08 07:34:49;;;;;;;33.80;16.43;;;-0.90;46.40;;;;;;5066356;28;20171;-60
2022/03/08 07:37:15;;;;;;;30.30;15.70;;;-0.80;46.30;;;;;;5042651;28;20673;-60
2022/03/08 07:39:41;;;;;;;35.43;16.37;;;-0.80;46.30;;;;;;5069803;28;20374;-61
2022/03/08 07:42:07;;;;;;;39.23;15.13;;;-0.80;46.20;;;;;;5058715;28;20547;-60
2022/03/08 07:44:32;;;;;;;31.30;16.40;;;-0.70;46.10;;;;;;5060653;28;20419;-59
2022/03/08 07:46:59;;;;;;;30.47;15.47;;;-0.70;45.90;;;;;;5069371;28;20177;-60
2022/03/08 07:49:25;;;;;;;25.30;15.10;;;-0.60;46.00;;;;;;5061328;28;20176;-60
2022/03/08 07:51:52;;;;;;;27.13;15.67;;;-0.60;45.90;;;;;;5070317;28;20436;-60
2022/03/08 07:54:18;;;;;;;33.67;14.63;;;-0.50;46.30;;;;;;5069645;28;20452;-60
2022/03/08 07:56:44;;;;;;;29.80;15.70;;;-0.40;45.70;;;;;;5069290;28;20482;-61
2022/03/08 07:59:11;;;;;;;31.00;15.60;;;-0.40;45.50;;;;;;5065342;28;20523;-61
2022/03/08 08:01:36;;;;;;;32.80;15.63;;;-0.30;45.40;;;;;;5082144;28;20214;-60
2022/03/08 08:04:02;;;;;;;29.03;16.50;;;-0.30;45.20;;;;;;5040998;28;20423;-61
2022/03/08 08:06:28;;;;;;;28.00;15.33;;;-0.30;45.20;;;;;;5044744;28;20243;-61
2022/03/08 08:08:54;;;;;;;28.93;15.90;;;-0.20;45.10;;;;;;5068811;28;20436;-59
2022/03/08 08:11:20;;;;;;;27.80;15.10;;;-0.20;45.10;;;;;;5070765;28;20179;-61
2022/03/08 08:13:48;;;;;;;27.87;15.00;;;-0.10;45.00;;;;;;5077481;28;20218;-62
2022/03/08 08:16:14;;;;;;;28.00;15.50;;;-0.10;44.80;;;;;;5077048;28;20408;-62
2022/03/08 08:18:40;;;;;;;27.80;15.10;;;0.00;44.80;;;;;;5073783;28;20439;-60
2022/03/08 08:21:05;;;;;;;29.73;14.30;;;0.10;44.70;;;;;;5074808;28;20430;-61
2022/03/08 08:23:31;;;;;;;29.10;16.40;;;0.20;44.70;;;;;;5071416;28;20287;-60
2022/03/08 08:25:57;;;;;;;30.50;14.00;;;0.20;44.60;;;;;;5059690;28;20188;-60
2022/03/08 08:28:23;;;;;;;29.93;15.23;;;0.30;44.50;;;;;;5057440;28;20436;-59
2022/03/08 08:30:48;;;;;;;26.93;13.83;;;0.40;44.40;;;;;;5055806;28;20184;-61
2022/03/08 08:33:14;;;;;;;25.90;14.87;;;0.40;44.40;;;;;;5062207;28;20287;-60
2022/03/08 08:35:40;;;;;;;26.50;14.30;;;0.40;44.40;;;;;;5060291;28;20219;-60
2022/03/08 08:38:06;;;;;;;29.10;14.00;;;0.50;44.30;;;;;;5062364;28;20274;-60
2022/03/08 08:40:34;;;;;;;27.90;14.53;;;0.60;44.10;;;;;;5047079;28;20600;-59
2022/03/08 08:43:00;;;;;;;30.47;14.00;;;0.60;43.90;;;;;;5069982;28;20482;-59
2022/03/08 08:45:26;;;;;;;25.40;16.20;;;0.70;43.90;;;;;;5065042;28;20481;-60
2022/03/08 08:47:51;;;;;;;28.60;14.30;;;0.80;43.80;;;;;;5051491;28;20185;-60
2022/03/08 08:50:17;;;;;;;30.93;15.83;;;0.80;43.90;;;;;;5067876;28;20260;-61
2022/03/08 08:52:43;;;;;;;31.77;15.30;;;0.90;43.90;;;;;;5064072;28;20650;-60
2022/03/08 08:55:09;;;;;;;30.30;14.50;;;1.00;44.10;;;;;;5042659;28;20414;-60
2022/03/08 08:57:36;;;;;;;26.93;14.90;;;1.00;44.40;;;;;;5072996;28;20200;-58
2022/03/08 09:00:02;;;;;;;28.40;16.00;;;1.10;43.90;;;;;;5060225;28;20461;-60
2022/03/08 09:02:28;;;;;;;28.43;15.70;;;1.10;44.00;;;;;;5065082;28;20446;-60
2022/03/08 09:04:54;;;;;;;25.93;15.30;;;1.20;44.10;;;;;;5059937;28;20435;-61
2022/03/08 09:07:19;;;;;;;30.03;15.10;;;1.30;44.20;;;;;;5064214;28;20323;-60
2022/03/08 09:09:47;;;;;;;27.40;15.60;;;1.40;44.10;;;;;;5060309;28;20188;-60
2022/03/08 09:12:13;;;;;;;32.07;15.80;;;1.50;44.10;;;;;;5066477;28;20236;-60
2022/03/08 09:14:39;;;;;;;36.00;16.97;;;1.60;43.70;;;;;;5070343;28;20421;-60
2022/03/08 09:17:04;;;;;;;33.60;17.00;;;1.70;43.50;;;;;;5066073;28;20469;-61
2022/03/08 09:19:30;;;;;;;26.27;15.10;;;1.80;43.30;;;;;;5060534;28;20173;-60
2022/03/08 09:21:56;;;;;;;30.30;15.90;;;1.90;43.20;;;;;;5067001;28;20257;-60
2022/03/08 09:24:21;;;;;;;31.13;16.43;;;2.10;43.60;;;;;;5061280;28;20791;-59
2022/03/08 09:26:47;;;;;;;27.10;15.97;;;2.20;43.40;;;;;;5068240;28;20184;-61
2022/03/08 09:29:13;;;;;;;31.30;16.60;;;2.40;42.70;;;;;;5070270;28;20169;-62
2022/03/08 09:31:38;;;;;;;32.70;18.17;;;2.50;42.50;;;;;;5064563;28;20202;-60
2022/03/08 09:34:04;;;;;;;30.40;18.17;;;2.50;42.50;;;;;;5067278;28;20195;-60
2022/03/08 09:36:30;;;;;;;30.37;16.23;;;2.60;42.10;;;;;;5066301;28;20694;-61
2022/03/08 09:38:56;;;;;;;26.40;15.50;;;2.70;41.70;;;;;;5042228;28;20186;-61
2022/03/08 09:41:22;;;;;;;28.90;17.27;;;2.80;41.50;;;;;;5065691;28;20794;-61
2022/03/08 09:43:48;;;;;;;32.57;17.30;;;2.90;41.30;;;;;;5062831;28;20546;-61
2022/03/08 09:46:13;;;;;;;26.80;14.63;;;2.90;41.10;;;;;;5058810;28;20492;-63
2022/03/08 09:48:39;;;;;;;31.97;15.83;;;3.00;41.10;;;;;;5061595;28;20202;-61
2022/03/08 09:51:05;;;;;;;26.97;15.60;;;3.10;40.80;;;;;;5057485;28;20553;-60
2022/03/08 09:53:31;;;;;;;29.77;16.30;;;3.10;40.70;;;;;;5061539;28;20664;-61
2022/03/08 09:56:01;;;;;;;35.10;16.90;;;3.20;40.70;;;;;;5041721;28;20432;-63
2022/03/08 09:58:27;;;;;;;34.37;16.43;;;3.30;40.40;;;;;;5054175;28;20445;-61
2022/03/08 10:00:55;;;;;;;34.03;16.43;;;3.50;40.40;;;;;;5058042;28;20442;-60
2022/03/08 10:03:35;;;;;;;29.97;17.03;;;3.60;40.00;;;;;;5061661;28;20183;-61
2022/03/08 10:06:03;;;;;;;26.10;14.57;;;3.70;39.70;;;;;;5063637;28;20423;-59
2022/03/08 10:08:29;;;;;;;29.23;16.23;;;3.80;39.30;;;;;;5062590;28;20487;-61
2022/03/08 10:11:00;;;;;;;29.80;15.70;;;3.90;39.40;;;;;;5061747;28;20419;-60
2022/03/08 10:13:32;;;;;;;37.70;16.40;;;4.00;39.50;;;;;;5065297;28;20229;-62
2022/03/08 10:16:07;;;;;;;26.00;15.70;;;4.10;39.30;;;;;;5053961;28;20749;-59
2022/03/08 10:18:40;;;;;;;28.10;15.23;;;4.20;39.10;;;;;;5061758;28;20458;-60
2022/03/08 10:21:32;;;;;;;27.20;15.70;;;4.30;39.00;;;;;;5056217;28;20423;-60
2022/03/08 10:24:25;;;;;;;28.70;15.50;;;4.40;38.70;;;;;;5065132;28;20420;-60
2022/03/08 10:26:52;;;;;;;28.07;15.43;;;4.50;38.60;;;;;;5056526;28;20452;-61
2022/03/08 10:29:25;;;;;;;25.80;13.87;;;4.70;38.80;;;;;;5062290;28;20421;-60
2022/03/08 10:32:05;;;;;;;32.53;15.70;;;4.80;38.50;;;;;;5068068;28;20554;-60
2022/03/08 10:34:31;;;;;;;26.40;15.30;;;4.90;38.50;;;;;;5065056;28;20508;-60
2022/03/08 10:36:59;;;;;;;28.00;15.57;;;5.10;37.30;;;;;;5061281;28;20467;-60
2022/03/08 10:39:25;;;;;;;25.83;14.93;;;5.20;37.10;;;;;;5049523;28;20412;-61
2022/03/08 10:41:57;;;;;;;23.90;14.27;;;5.20;37.30;;;;;;5065483;28;20443;-60
2022/03/08 10:44:31;;;;;;;26.73;15.07;;;5.40;36.40;;;;;;5074192;22;20220;-61
2022/03/08 10:47:12;;;;;;;24.60;15.27;;;5.50;36.20;;;;;;5084623;28;20427;-60
2022/03/08 10:50:02;;;;;;;23.00;14.33;;;5.60;36.40;;;;;;5088406;28;20464;-61
2022/03/08 10:52:40;;;;;;;27.90;14.57;;;5.80;36.00;;;;;;5079388;28;20509;-61
2022/03/08 10:55:11;;;;;;;22.77;13.60;;;5.90;35.50;;;;;;5070059;28;20435;-60
2022/03/08 10:57:39;;;;;;;23.60;13.77;;;6.00;35.10;;;;;;5078077;28;20456;-59
2022/03/08 11:00:11;;;;;;;22.87;13.40;;;6.10;34.90;;;;;;5079336;28;20925;-61
2022/03/08 11:02:55;;;;;;;24.57;13.37;;;6.20;34.50;;;;;;5089512;28;20522;-59
2022/03/08 11:05:23;;;;;;;22.60;13.17;;;6.40;34.50;;;;;;5090926;28;20454;-59
2022/03/08 11:07:50;;;;;;;26.63;15.00;;;6.50;34.30;;;;;;5081643;28;20432;-60
2022/03/08 11:10:17;;;;;;;23.73;14.03;;;6.70;34.00;;;;;;5087152;28;20429;-60
2022/03/08 11:12:44;;;;;;;18.63;11.90;;;6.80;32.90;;;;;;5089087;28;20427;-60
2022/03/08 11:15:13;;;;;;;22.37;12.57;;;6.90;33.20;;;;;;5088567;28;20450;-61
2022/03/08 11:17:41;;;;;;;20.90;11.67;;;7.00;33.00;;;;;;5090284;28;20850;-60
2022/03/08 11:20:09;;;;;;;19.63;12.60;;;7.20;33.10;;;;;;5089559;28;20423;-60
2022/03/08 11:22:35;;;;;;;20.20;12.33;;;7.40;31.70;;;;;;5089329;28;20412;-60
2022/03/08 11:25:02;;;;;;;19.70;12.07;;;7.50;31.50;;;;;;5081291;28;20511;-61
2022/03/08 11:27:29;;;;;;;22.97;11.90;;;7.80;32.10;;;;;;5089401;28;20444;-60
2022/03/08 11:29:54;;;;;;;20.53;12.27;;;8.00;32.00;;;;;;5089288;28;20533;-61
2022/03/08 11:32:29;;;;;;;16.80;11.33;;;8.30;32.10;;;;;;5088591;28;20426;-61
2022/03/08 11:35:01;;;;;;;17.13;11.30;;;8.70;31.30;;;;;;5087474;28;20451;-61
2022/03/08 11:37:29;;;;;;;18.67;11.23;;;9.10;30.10;;;;;;5090036;28;20496;-60
2022/03/08 11:40:23;;;;;;;23.63;13.77;;;9.70;29.80;;;;;;5088081;28;20427;-61
2022/03/08 11:42:53;;;;;;;18.50;11.70;;;10.30;28.90;;;;;;5072358;28;20429;-61
2022/03/08 11:45:25;;;;;;;20.77;11.77;;;10.70;28.60;;;;;;5068943;28;20941;-61
2022/03/08 11:48:06;;;;;;;22.90;13.20;;;10.90;28.50;;;;;;5083741;28;20455;-61
2022/03/08 11:50:38;;;;;;;21.30;11.73;;;11.30;27.80;;;;;;5088044;28;20416;-61
2022/03/08 11:53:06;;;;;;;20.37;11.70;;;11.60;27.40;;;;;;5088392;28;20515;-61
2022/03/08 11:55:44;;;;;;;19.33;12.17;;;11.70;27.30;;;;;;5089138;28;20480;-62
2022/03/08 11:58:19;;;;;;;18.20;12.70;;;12.10;27.20;;;;;;5084218;28;20459;-61
2022/03/08 12:00:52;;;;;;;18.90;12.60;;;12.40;27.00;;;;;;5085375;28;20505;-60
2022/03/08 12:03:21;;;;;;;18.07;12.67;;;12.80;27.10;;;;;;5087732;28;20434;-58
2022/03/08 12:06:09;;;;;;;15.63;11.73;;;12.90;26.60;;;;;;5085368;28;20497;-56
2022/03/08 12:08:38;;;;;;;15.43;10.80;;;12.90;26.50;;;;;;5086782;28;20424;-62
2022/03/08 12:11:07;;;;;;;15.33;10.90;;;12.90;26.40;;;;;;5074576;28;20432;-59
2022/03/08 12:13:38;;;;;;;18.37;11.73;;;12.70;26.00;;;;;;5076249;28;20515;-56
2022/03/08 12:16:07;;;;;;;17.57;11.90;;;12.40;26.40;;;;;;5080195;28;20455;-60
2022/03/08 12:19:01;;;;;;;18.00;11.87;;;12.30;26.60;;;;;;5088621;28;20580;-59
2022/03/08 12:21:27;;;;;;;14.97;10.73;;;12.50;26.60;;;;;;5075556;28;20548;-61
2022/03/08 12:24:05;;;;;;;13.27;10.10;;;12.40;26.40;;;;;;5084905;28;20508;-58
2022/03/08 12:26:36;;;;;;;14.80;11.70;;;12.40;26.40;;;;;;5084151;28;20169;-61
2022/03/08 12:29:22;;;;;;;15.63;11.23;;;12.40;26.80;;;;;;5083095;28;20917;-61
2022/03/08 12:32:05;;;;;;;16.00;10.93;;;12.30;26.90;;;;;;5086884;28;20862;-61